Time;durP1;ratioP1;P1;durP2;ratioP2;P2;SDS_P1;SDS_P2;PMS_P1;PMS_P2;Temp;Humidity;BMP_temperature;BMP_pressure;BME280_temperature;BME280_humidity;BME280_pressure;Samples;Min_cycle;Max_cycle;Signal;HPM_P1;HPM_P2
2022/07/09 00:00:39;;;;;;;6.77;5.13;;;;;;;21.61;82.65;99139.75;5065445;28;20192;-57
2022/07/09 00:03:06;;;;;;;5.83;5.33;;;;;;;21.44;82.49;99143.81;5064678;28;20191;-57
2022/07/09 00:05:33;;;;;;;5.90;4.93;;;;;;;21.44;83.55;99143.81;5071903;28;20207;-58
2022/07/09 00:07:59;;;;;;;5.43;5.00;;;;;;;;;;5071918;28;20192;-57
2022/07/09 00:10:28;;;;;;;6.60;5.90;;;;;;;21.34;84.09;99127.59;5057662;28;20219;-58
2022/07/09 00:12:54;;;;;;;6.10;5.70;;;;;;;21.36;85.30;99131.00;5071592;28;20199;-58
2022/07/09 00:15:21;;;;;;;6.73;6.10;;;;;;;21.42;85.52;99135.19;5071942;28;20195;-58
2022/07/09 00:17:48;;;;;;;6.30;5.80;;;;;;;21.35;84.98;99129.28;5071359;28;20214;-57
2022/07/09 00:20:15;;;;;;;6.00;5.47;;;;;;;21.34;85.32;99129.34;5071758;28;20222;-58
2022/07/09 00:22:42;;;;;;;7.03;6.43;;;;;;;21.26;86.02;99134.81;5071448;28;20246;-58
2022/07/09 00:25:08;;;;;;;6.60;5.90;;;;;;;21.32;86.48;99131.13;5071525;28;20192;-58
2022/07/09 00:27:37;;;;;;;9.27;5.57;;;;;;;21.39;86.77;99135.28;5070825;28;20196;-57
2022/07/09 00:30:04;;;;;;;7.70;6.50;;;;;;;21.37;87.00;99127.47;5070955;28;20429;-57
2022/07/09 00:32:31;;;;;;;7.50;6.73;;;;;;;21.46;87.07;99127.16;5071454;28;20195;-58
2022/07/09 00:34:58;;;;;;;7.93;7.23;;;;;;;21.43;87.80;99124.66;5057660;28;20207;-57
2022/07/09 00:37:25;;;;;;;7.93;6.93;;;;;;;21.36;88.57;99117.09;5054633;28;20195;-57
2022/07/09 00:39:52;;;;;;;7.97;7.00;;;;;;;21.29;89.21;99123.44;5067536;28;20228;-57
2022/07/09 00:42:19;;;;;;;8.10;7.30;;;;;;;21.30;88.84;99115.53;5065063;28;20254;-58
2022/07/09 00:44:47;;;;;;;8.13;7.40;;;;;;;21.27;88.42;99120.00;5063340;28;20198;-58
2022/07/09 00:47:14;;;;;;;7.93;6.90;;;;;;;21.17;88.05;99115.09;5071399;28;20199;-58
2022/07/09 00:49:43;;;;;;;8.00;7.30;;;;;;;21.12;88.75;99121.38;5070035;28;20208;-58
2022/07/09 00:52:12;;;;;;;7.83;7.23;;;;;;;21.03;89.32;99101.56;5070267;28;20196;-57
2022/07/09 00:54:40;;;;;;;7.53;6.83;;;;;;;21.03;88.13;99106.81;5071147;28;20198;-58
2022/07/09 00:57:08;;;;;;;6.90;6.33;;;;;;;21.07;88.69;99107.56;5071271;28;20601;-58
2022/07/09 00:59:36;;;;;;;8.73;7.13;;;;;;;21.09;88.98;99104.03;5071023;28;20222;-57
2022/07/09 01:02:07;;;;;;;7.77;7.17;;;;;;;21.11;89.10;99107.44;5070957;28;20192;-57
2022/07/09 01:04:34;;;;;;;7.60;6.90;;;;;;;21.02;88.31;99104.22;5070965;28;20241;-58
2022/07/09 01:07:01;;;;;;;7.47;6.77;;;;;;;20.97;88.58;99104.38;5070782;28;20563;-58
2022/07/09 01:09:29;;;;;;;7.57;6.97;;;;;;;20.98;88.51;99090.44;5070947;28;20302;-57
2022/07/09 01:11:57;;;;;;;7.20;6.60;;;;;;;20.99;88.45;99092.13;5070377;28;20196;-57
2022/07/09 01:14:24;;;;;;;7.50;6.17;;;;;;;20.93;88.28;99092.31;5070594;28;20191;-58
2022/07/09 01:16:58;;;;;;;7.77;7.17;;;;;;;20.94;88.81;99095.78;5070399;28;20203;-57
2022/07/09 01:19:26;;;;;;;7.40;6.73;;;;;;;20.93;88.54;99100.13;5069971;28;20230;-57
2022/07/09 01:21:55;;;;;;;6.73;6.13;;;;;;;20.88;88.31;99098.56;5070140;28;20203;-57
2022/07/09 01:24:22;;;;;;;7.63;6.93;;;;;;;20.91;88.72;99101.97;5070472;28;20238;-57
2022/07/09 01:26:50;;;;;;;7.00;6.30;;;;;;;20.81;88.89;99079.66;5070674;28;20318;-57
2022/07/09 01:29:17;;;;;;;7.38;6.78;;;;;;;21.06;87.95;99101.47;5069497;28;20437;-57
2022/07/09 01:31:44;;;;;;;6.87;6.33;;;;;;;21.14;87.55;99099.50;5070547;28;20955;-57
2022/07/09 01:34:10;;;;;;;7.67;7.07;;;;;;;21.19;87.10;99112.41;5070514;28;20206;-57
2022/07/09 01:36:37;;;;;;;7.40;6.70;;;;;;;21.19;86.66;99107.19;5070501;28;20196;-57
2022/07/09 01:39:06;;;;;;;7.40;6.43;;;;;;;21.23;86.81;99114.03;5070661;28;20219;-57
2022/07/09 01:41:33;;;;;;;6.87;6.27;;;;;;;21.25;86.58;99114.81;5070463;28;20199;-57
2022/07/09 01:43:59;;;;;;;6.93;6.23;;;;;;;20.99;87.16;99075.59;5070451;28;20665;-57
2022/07/09 01:46:26;;;;;;;6.73;6.13;;;;;;;21.21;87.04;99110.59;5070375;28;20207;-57
2022/07/09 01:48:53;;;;;;;7.70;6.90;;;;;;;21.22;87.30;99122.75;5069984;28;20202;-57
2022/07/09 01:51:21;;;;;;;7.03;6.50;;;;;;;21.16;87.54;99121.19;5070457;28;20195;-57
2022/07/09 01:53:48;;;;;;;6.83;6.33;;;;;;;21.13;87.75;99131.75;5070132;28;20568;-57
2022/07/09 01:56:17;;;;;;;8.20;7.40;;;;;;;21.18;87.16;99131.59;5069039;28;20441;-57
2022/07/09 01:58:44;;;;;;;7.37;6.77;;;;;;;21.22;87.38;99127.13;5069900;28;20222;-57
2022/07/09 02:01:12;;;;;;;7.63;6.60;;;;;;;21.19;87.67;99120.25;5069892;28;20245;-58
2022/07/09 02:03:38;;;;;;;9.27;7.07;;;;;;;21.24;87.26;99122.69;5073321;28;20278;-58
2022/07/09 02:06:06;;;;;;;7.33;6.73;;;;;;;21.21;87.65;99109.72;5073558;28;20199;-58
2022/07/09 02:08:33;;;;;;;8.00;7.30;;;;;;;21.20;88.16;99115.88;5072862;28;20192;-58
2022/07/09 02:10:59;;;;;;;8.38;7.40;;;;;;;21.25;88.13;99109.59;5072114;28;20472;-57
2022/07/09 02:13:28;;;;;;;7.60;7.00;;;;;;;21.29;87.29;99116.41;5072400;28;20206;-58
2022/07/09 02:15:55;;;;;;;7.30;6.70;;;;;;;21.25;87.02;99120.06;5073922;28;20199;-57
2022/07/09 02:18:22;;;;;;;8.23;6.73;;;;;;;21.27;87.39;99113.00;5073530;28;20798;-57
2022/07/09 02:20:48;;;;;;;6.77;6.23;;;;;;;21.26;86.77;99107.84;5073609;28;20188;-58
2022/07/09 02:23:15;;;;;;;6.50;6.00;;;;;;;21.26;86.48;99107.84;5073475;28;20234;-58
2022/07/09 02:25:42;;;;;;;7.53;6.83;;;;;;;21.24;86.27;99105.25;5073859;28;20195;-57
2022/07/09 02:28:09;;;;;;;6.70;6.10;;;;;;;21.24;86.05;99104.41;5073665;28;20206;-57
2022/07/09 02:30:37;;;;;;;6.80;6.23;;;;;;;21.27;86.09;99107.78;5073837;28;20191;-57
2022/07/09 02:33:04;;;;;;;6.80;6.30;;;;;;;21.28;85.81;99106.88;5073690;28;20187;-57
2022/07/09 02:35:31;;;;;;;6.53;6.03;;;;;;;21.24;85.80;99099.19;5073950;28;20196;-57
2022/07/09 02:37:58;;;;;;;6.63;6.00;;;;;;;21.25;85.44;99107.00;5073402;28;20200;-58
2022/07/09 02:40:25;;;;;;;7.97;6.33;;;;;;;21.26;85.37;99105.22;5073546;28;20187;-63
2022/07/09 02:42:52;;;;;;;6.43;5.93;;;;;;;21.22;85.03;99106.22;5073626;28;20192;-63
2022/07/09 02:45:19;;;;;;;6.97;6.33;;;;;;;21.25;84.36;99100.91;5073607;28;20207;-65
2022/07/09 02:47:47;;;;;;;6.63;5.20;;;;;;;21.25;84.36;99098.28;5073854;28;20211;-64
2022/07/09 02:50:14;;;;;;;5.70;5.30;;;;;;;21.24;83.86;99101.78;5073561;28;20187;-63
2022/07/09 02:52:41;;;;;;;5.77;5.37;;;;;;;21.28;83.78;99103.41;5073682;28;20198;-63
2022/07/09 02:55:08;;;;;;;5.87;5.07;;;;;;;21.26;83.29;99100.84;5073592;28;20195;-63
2022/07/09 02:57:35;;;;;;;5.97;5.47;;;;;;;21.27;83.65;99099.09;5073787;28;20188;-63
2022/07/09 03:00:02;;;;;;;5.83;5.33;;;;;;;21.29;83.75;99092.06;5073455;28;20594;-63
2022/07/09 03:02:29;;;;;;;5.50;5.00;;;;;;;21.33;83.40;99098.88;5073408;28;20198;-63
2022/07/09 03:04:57;;;;;;;5.63;5.13;;;;;;;21.33;83.37;99089.28;5073506;28;20670;-63
2022/07/09 03:07:24;;;;;;;5.63;5.13;;;;;;;21.39;83.27;99091.69;5072495;28;20200;-63
2022/07/09 03:09:51;;;;;;;5.43;5.03;;;;;;;21.45;81.86;99086.25;5073563;28;20237;-63
2022/07/09 03:12:18;;;;;;;5.80;5.33;;;;;;;21.54;81.34;99085.94;5073220;28;20516;-63
2022/07/09 03:14:45;;;;;;;5.70;5.30;;;;;;;21.70;79.66;99094.09;5072002;28;20187;-65
2022/07/09 03:17:12;;;;;;;4.93;4.57;;;;;;;21.90;78.08;99096.03;5073557;28;20184;-64
2022/07/09 03:19:38;;;;;;;5.00;4.60;;;;;;;22.02;76.39;99095.59;5073525;28;20582;-64
2022/07/09 03:22:07;;;;;;;5.40;4.93;;;;;;;22.01;76.30;99081.66;5072189;28;20434;-64
2022/07/09 03:24:34;;;;;;;5.30;4.80;;;;;;;22.21;75.97;99091.41;5073236;28;20195;-64
2022/07/09 03:27:00;;;;;;;5.40;5.00;;;;;;;22.31;75.43;99092.75;5073450;28;20200;-64
2022/07/09 03:29:27;;;;;;;5.23;4.73;;;;;;;22.32;75.27;99097.09;5072955;28;20194;-64
2022/07/09 03:31:54;;;;;;;4.90;4.47;;;;;;;22.38;75.27;99104.72;5073482;28;20196;-64
2022/07/09 03:34:21;;;;;;;5.17;4.80;;;;;;;22.46;75.47;99102.66;5072898;28;20650;-65
2022/07/09 03:36:49;;;;;;;4.97;4.57;;;;;;;22.61;73.17;99099.44;5072016;28;20446;-65
2022/07/09 03:39:17;;;;;;;4.30;3.97;;;;;;;22.76;72.05;99101.50;5072850;28;20215;-65
2022/07/09 03:41:44;;;;;;;4.60;4.30;;;;;;;22.45;71.84;99035.50;5072700;28;20188;-64
2022/07/09 03:44:11;;;;;;;4.70;4.30;;;;;;;22.86;72.37;99097.59;5073142;28;20196;-65
2022/07/09 03:46:38;;;;;;;4.93;4.60;;;;;;;22.97;71.33;99093.69;5072999;28;20200;-64
2022/07/09 03:49:04;;;;;;;5.43;4.40;;;;;;;22.96;71.25;99107.72;5072915;28;20192;-64
2022/07/09 03:51:31;;;;;;;5.87;4.63;;;;;;;22.91;72.06;99095.66;5072658;28;20566;-65
2022/07/09 03:53:58;;;;;;;4.07;3.77;;;;;;;23.05;71.60;99102.09;5072737;28;20184;-64
2022/07/09 03:56:26;;;;;;;4.60;4.27;;;;;;;22.99;70.75;99089.28;5072640;28;20194;-65
2022/07/09 03:58:53;;;;;;;5.23;4.57;;;;;;;23.12;70.88;99106.19;5072286;28;20215;-65
2022/07/09 04:01:20;;;;;;;4.87;4.40;;;;;;;23.06;70.74;99109.06;5072987;28;20183;-64
2022/07/09 04:03:47;;;;;;;5.07;4.60;;;;;;;23.10;70.60;99116.72;5071870;28;20441;-64
2022/07/09 04:06:14;;;;;;;4.20;3.90;;;;;;;23.08;70.90;99121.19;5072382;28;20189;-64
2022/07/09 04:08:41;;;;;;;4.77;4.40;;;;;;;23.07;71.26;99114.25;5071893;28;20286;-65
2022/07/09 04:11:08;;;;;;;6.50;4.23;;;;;;;23.12;71.08;99124.53;5072273;28;20629;-63
2022/07/09 04:13:36;;;;;;;6.77;4.37;;;;;;;22.90;71.76;99109.69;5072452;28;20203;-65
2022/07/09 04:16:03;;;;;;;5.10;4.60;;;;;;;22.96;71.90;99113.84;5071719;28;20195;-63
2022/07/09 04:18:29;;;;;;;4.90;4.50;;;;;;;22.91;71.98;99111.38;5071349;28;20434;-64
2022/07/09 04:20:57;;;;;;;5.20;4.80;;;;;;;23.02;71.78;99118.81;5071767;28;20200;-65
2022/07/09 04:23:24;;;;;;;4.90;4.33;;;;;;;23.03;71.86;99122.28;5071793;28;20238;-64
2022/07/09 04:25:51;;;;;;;4.53;4.20;;;;;;;22.92;71.91;99120.09;5071241;28;20593;-64
2022/07/09 04:28:18;;;;;;;4.87;4.30;;;;;;;23.04;71.59;99119.63;5072046;28;20207;-64
2022/07/09 04:30:46;;;;;;;5.13;4.67;;;;;;;23.10;71.30;99116.72;5071747;28;20195;-64
2022/07/09 04:33:13;;;;;;;8.90;4.90;;;;;;;23.16;71.35;99124.34;5071408;28;20192;-64
2022/07/09 04:35:40;;;;;;;5.13;4.73;;;;;;;23.17;71.41;99119.97;5071610;28;20650;-64
2022/07/09 04:38:07;;;;;;;5.07;4.57;;;;;;;23.23;71.04;99117.09;5071908;28;20188;-64
2022/07/09 04:40:34;;;;;;;6.50;4.97;;;;;;;23.19;70.86;99121.59;5071616;28;20633;-64
2022/07/09 04:43:01;;;;;;;4.63;4.23;;;;;;;23.14;71.00;99118.31;5071121;28;20195;-63
2022/07/09 04:45:29;;;;;;;6.17;4.57;;;;;;;23.18;71.15;99119.91;5068757;28;20192;-63
2022/07/09 04:47:58;;;;;;;5.17;4.77;;;;;;;23.22;70.54;99124.09;5069951;28;20620;-63
2022/07/09 04:50:25;;;;;;;5.10;4.70;;;;;;;23.15;70.71;99119.19;5071521;28;20260;-64
2022/07/09 04:52:52;;;;;;;4.30;4.00;;;;;;;23.17;71.16;99126.06;5066656;28;20195;-63
2022/07/09 04:55:21;;;;;;;4.57;4.27;;;;;;;23.07;71.47;99110.78;5062694;28;20196;-64
2022/07/09 04:57:48;;;;;;;4.50;4.17;;;;;;;23.05;71.03;99120.44;5067505;28;20253;-65
2022/07/09 05:00:16;;;;;;;4.50;4.10;;;;;;;22.98;71.31;99114.63;5070599;28;20664;-65
2022/07/09 05:02:44;;;;;;;5.90;4.73;;;;;;;23.01;71.87;99121.50;5070584;28;20237;-66
2022/07/09 05:05:13;;;;;;;4.83;4.50;;;;;;;23.02;71.59;99112.72;5070670;28;20202;-65
2022/07/09 05:07:40;;;;;;;5.23;4.83;;;;;;;23.00;70.90;99114.53;5068277;28;20357;-64
2022/07/09 05:10:08;;;;;;;4.97;4.53;;;;;;;23.07;70.94;99118.63;5070523;28;20230;-64
2022/07/09 05:12:35;;;;;;;6.40;4.67;;;;;;;23.22;70.85;99123.25;5065625;28;20573;-64
2022/07/09 05:15:03;;;;;;;4.50;4.10;;;;;;;23.26;70.27;99128.31;5061241;28;20188;-64
2022/07/09 05:17:34;;;;;;;4.70;4.40;;;;;;;23.23;69.81;99135.44;5059214;28;20642;-64
2022/07/09 05:20:03;;;;;;;6.47;4.30;;;;;;;23.28;69.90;99130.88;5060950;28;20219;-63
2022/07/09 05:22:32;;;;;;;4.97;4.68;;;;;;;23.29;70.02;99127.34;5064537;28;20472;-63
2022/07/09 05:24:58;;;;;;;4.50;4.20;;;;;;;23.31;70.10;99125.50;5069541;28;20200;-64
2022/07/09 05:27:26;;;;;;;5.00;4.53;;;;;;;23.46;70.04;99125.75;5070342;28;20191;-64
2022/07/09 05:29:53;;;;;;;6.50;4.50;;;;;;;23.54;69.82;99130.66;5070745;28;20182;-64
2022/07/09 05:32:20;;;;;;;5.20;4.80;;;;;;;23.54;70.23;99127.19;5070092;28;20211;-64
2022/07/09 05:34:47;;;;;;;4.53;4.23;;;;;;;23.44;69.82;99132.81;5063266;28;20196;-65
2022/07/09 05:37:14;;;;;;;5.20;4.73;;;;;;;23.49;69.21;99136.09;5057226;28;20655;-64
2022/07/09 05:39:42;;;;;;;5.90;4.73;;;;;;;23.48;69.99;99115.19;5063490;28;20215;-65
2022/07/09 05:42:09;;;;;;;4.43;4.03;;;;;;;23.40;69.54;99120.75;5066830;28;20582;-66
2022/07/09 05:44:36;;;;;;;6.30;4.50;;;;;;;23.40;69.91;99125.16;5068681;28;20203;-66
2022/07/09 05:47:03;;;;;;;5.13;4.73;;;;;;;23.36;69.82;99129.63;5068906;28;20319;-66
2022/07/09 05:49:30;;;;;;;5.03;4.63;;;;;;;23.42;70.64;99124.19;5068433;28;20558;-65
2022/07/09 05:51:57;;;;;;;5.07;4.67;;;;;;;23.47;70.33;99130.06;5069819;28;20571;-65
2022/07/09 05:54:24;;;;;;;5.33;4.83;;;;;;;23.49;69.62;99124.75;5069655;28;20321;-66
2022/07/09 05:56:52;;;;;;;4.80;4.10;;;;;;;23.57;69.61;99138.41;5070113;28;20198;-65
2022/07/09 05:59:19;;;;;;;4.77;4.30;;;;;;;23.59;69.42;99120.84;5069715;28;20226;-65
2022/07/09 06:01:46;;;;;;;4.70;4.37;;;;;;;23.61;69.48;99126.00;5069993;28;20196;-65
2022/07/09 06:04:13;;;;;;;4.90;4.50;;;;;;;23.67;69.44;99124.00;5069948;28;20199;-64
2022/07/09 06:06:40;;;;;;;4.70;4.40;;;;;;;23.65;69.50;99115.31;5065956;28;20257;-64
2022/07/09 06:09:07;;;;;;;6.10;4.80;;;;;;;23.65;68.81;99117.13;5068328;28;20461;-64
2022/07/09 06:11:34;;;;;;;4.63;4.33;;;;;;;23.79;69.18;99127.84;5069608;28;20183;-64
2022/07/09 06:14:02;;;;;;;5.07;4.67;;;;;;;23.72;68.95;99119.41;5066503;28;20191;-65
2022/07/09 06:16:29;;;;;;;4.90;4.50;;;;;;;23.66;69.33;99110.94;5065486;28;20195;-65
2022/07/09 06:18:56;;;;;;;4.83;4.53;;;;;;;23.71;69.41;99120.31;5069143;28;20218;-64
2022/07/09 06:21:23;;;;;;;4.27;3.97;;;;;;;23.74;69.43;99112.31;5068977;28;20211;-65
2022/07/09 06:23:50;;;;;;;4.93;4.53;;;;;;;23.81;69.27;99116.38;5069032;28;20234;-65
2022/07/09 06:26:17;;;;;;;5.00;4.50;;;;;;;23.81;68.97;99116.38;5069140;28;20199;-64
2022/07/09 06:28:43;;;;;;;5.35;4.72;;;;;;;23.85;69.11;99109.22;5056969;28;20549;-64
2022/07/09 06:31:12;;;;;;;4.83;4.53;;;;;;;23.93;68.87;99112.34;5062249;28;20184;-65
2022/07/09 06:33:38;;;;;;;6.13;5.13;;;;;;;23.96;69.11;99113.06;5062896;28;20191;-64
2022/07/09 06:36:06;;;;;;;5.03;4.63;;;;;;;24.01;67.98;99108.47;5069753;28;20597;-65
2022/07/09 06:39:44;;;;;;;4.80;4.40;;;;;;;24.04;68.43;99103.09;5069570;28;20176;-64
2022/07/09 06:41:19;;;;;;;5.13;4.30;;;;;;;24.00;68.65;99100.69;5069248;28;20219;-64
2022/07/09 06:43:46;;;;;;;5.07;4.50;;;;;;;24.14;68.31;99103.59;5069797;28;20183;-64
2022/07/09 06:46:14;;;;;;;5.00;4.50;;;;;;;24.07;68.58;99102.97;5067520;28;20196;-65
2022/07/09 06:48:42;;;;;;;4.93;4.50;;;;;;;23.96;69.26;99099.09;5069134;28;20642;-65
2022/07/09 06:51:08;;;;;;;7.07;5.33;;;;;;;24.11;68.70;99093.22;5064476;28;20624;-65
2022/07/09 06:53:35;;;;;;;5.07;4.57;;;;;;;24.26;68.94;99096.91;5073005;28;20188;-65
2022/07/09 06:56:02;;;;;;;5.90;5.20;;;;;;;24.38;68.50;99088.47;5072798;28;20196;-64
2022/07/09 06:58:29;;;;;;;5.50;5.03;;;;;;;24.52;67.79;99088.69;5072955;28;20207;-64
2022/07/09 07:00:56;;;;;;;4.83;4.43;;;;;;;24.51;66.67;99081.72;5072659;28;20230;-65
2022/07/09 07:03:24;;;;;;;5.07;4.43;;;;;;;24.51;66.63;99084.34;5072412;28;20253;-65
2022/07/09 07:05:51;;;;;;;5.40;4.30;;;;;;;24.50;65.91;99085.28;5070460;28;20191;-64
2022/07/09 07:08:18;;;;;;;5.13;4.67;;;;;;;24.55;65.63;99085.91;5070457;28;20563;-65
2022/07/09 07:10:45;;;;;;;7.88;5.25;;;;;;;24.55;66.07;99089.41;5071397;28;20549;-64
2022/07/09 07:13:12;;;;;;;8.80;5.27;;;;;;;24.57;65.87;99081.44;5071419;28;20183;-65
2022/07/09 07:15:38;;;;;;;7.03;5.43;;;;;;;24.70;65.78;99081.69;5071388;28;20272;-65
2022/07/09 07:18:05;;;;;;;6.17;5.57;;;;;;;24.84;65.04;99101.19;5071221;28;20191;-65
2022/07/09 07:20:33;;;;;;;6.00;5.30;;;;;;;24.81;65.37;99089.94;5071971;28;20223;-64
2022/07/09 07:23:00;;;;;;;6.00;5.50;;;;;;;24.86;65.00;99091.44;5071923;28;20228;-65
2022/07/09 07:25:27;;;;;;;5.83;5.30;;;;;;;24.91;64.87;99097.34;5072052;28;20666;-64
2022/07/09 07:27:54;;;;;;;6.23;5.63;;;;;;;25.07;64.55;99098.31;5071609;28;20199;-64
2022/07/09 07:30:21;;;;;;;6.20;5.60;;;;;;;25.05;64.12;99094.88;5071686;28;20190;-64
2022/07/09 07:32:47;;;;;;;6.70;5.30;;;;;;;25.19;63.67;99104.72;5072117;28;20601;-66
2022/07/09 07:35:14;;;;;;;8.03;5.20;;;;;;;25.24;63.66;99093.03;5072321;28;20188;-65
2022/07/09 07:37:42;;;;;;;5.97;5.30;;;;;;;25.30;63.29;99094.53;5071086;28;20820;-65
2022/07/09 07:40:11;;;;;;;7.13;5.73;;;;;;;25.42;63.01;99093.06;5071736;28;20215;-65
2022/07/09 07:42:37;;;;;;;8.00;6.23;;;;;;;25.48;63.54;99096.28;5071759;28;20198;-65
2022/07/09 07:45:05;;;;;;;6.63;6.13;;;;;;;25.53;62.05;99103.94;5071709;28;20245;-65
2022/07/09 07:47:32;;;;;;;7.37;5.73;;;;;;;25.69;61.59;99094.31;5071679;28;20215;-64
2022/07/09 07:49:59;;;;;;;9.03;5.93;;;;;;;25.89;61.62;99088.03;5071808;28;20195;-64
2022/07/09 07:52:26;;;;;;;7.03;5.80;;;;;;;26.15;60.57;99091.00;5071594;28;20194;-65
2022/07/09 07:54:54;;;;;;;7.73;7.03;;;;;;;26.11;59.61;99099.97;5071180;28;20546;-65
2022/07/09 07:57:21;;;;;;;8.67;7.37;;;;;;;26.11;58.79;99097.34;5071545;28;20196;-65
2022/07/09 07:59:48;;;;;;;9.93;6.93;;;;;;;26.11;59.03;99102.63;5070961;28;20268;-65
2022/07/09 08:02:15;;;;;;;9.40;7.80;;;;;;;26.10;58.90;99095.63;5071316;28;20555;-66
2022/07/09 08:04:42;;;;;;;9.20;6.00;;;;;;;26.05;59.42;99099.44;5071376;28;20191;-65
2022/07/09 08:07:09;;;;;;;9.20;7.93;;;;;;;26.02;60.11;99097.81;5071328;28;20191;-65
2022/07/09 08:09:36;;;;;;;7.00;6.30;;;;;;;26.00;60.62;99090.94;5066153;28;20303;-64
2022/07/09 08:12:04;;;;;;;8.73;7.17;;;;;;;26.30;60.36;99089.34;5064662;28;20200;-65
2022/07/09 08:14:31;;;;;;;5.97;5.40;;;;;;;26.18;59.56;99088.22;5071437;28;20666;-64
2022/07/09 08:16:58;;;;;;;5.30;4.80;;;;;;;26.24;58.16;99093.16;5070279;28;20195;-64
2022/07/09 08:19:25;;;;;;;5.17;4.80;;;;;;;26.34;58.12;99091.72;5067233;28;20290;-64
2022/07/09 08:21:52;;;;;;;6.60;5.03;;;;;;;26.46;57.71;99090.19;5061424;28;20224;-63
2022/07/09 08:24:18;;;;;;;5.43;4.93;;;;;;;26.64;57.55;99089.22;5051085;28;20733;-64
2022/07/09 08:26:45;;;;;;;5.33;4.83;;;;;;;26.69;57.16;99084.53;5051198;28;20188;-66
2022/07/09 08:29:13;;;;;;;7.20;4.77;;;;;;;26.68;56.40;99084.59;5050988;28;20192;-66
2022/07/09 08:31:40;;;;;;;6.63;5.37;;;;;;;26.72;55.58;99087.00;5051365;28;20192;-66
2022/07/09 08:34:07;;;;;;;5.00;4.60;;;;;;;26.64;54.74;99093.63;5051162;28;20200;-65
2022/07/09 08:36:34;;;;;;;5.38;4.97;;;;;;;26.54;55.48;99093.28;5061495;28;20988;-66
2022/07/09 08:39:01;;;;;;;5.37;4.87;;;;;;;26.64;55.76;99094.47;5063461;28;20198;-65
2022/07/09 08:41:28;;;;;;;7.40;5.03;;;;;;;26.83;55.76;99094.34;5062279;28;20203;-65
2022/07/09 08:43:55;;;;;;;5.27;4.70;;;;;;;26.72;54.55;99073.81;5060846;28;20196;-66
2022/07/09 08:46:23;;;;;;;4.57;4.28;;;;;;;26.81;54.29;99090.94;5060316;28;20184;-66
2022/07/09 08:48:50;;;;;;;5.63;5.13;;;;;;;26.84;54.71;99093.38;5060635;28;20191;-65
2022/07/09 08:51:19;;;;;;;5.33;4.83;;;;;;;26.91;54.48;99084.19;5060132;28;20199;-65
2022/07/09 08:53:46;;;;;;;6.07;5.07;;;;;;;26.94;55.16;99086.66;5068727;28;20203;-64
2022/07/09 08:56:13;;;;;;;5.30;4.90;;;;;;;27.01;54.31;99082.72;5070156;28;20442;-65
2022/07/09 08:58:41;;;;;;;5.95;5.35;;;;;;;27.36;54.21;99078.91;5067928;28;20196;-66
2022/07/09 09:01:08;;;;;;;5.30;4.43;;;;;;;27.42;53.04;99075.06;5061962;28;20228;-66
2022/07/09 09:03:36;;;;;;;5.28;4.68;;;;;;;27.38;52.96;99074.41;5060228;28;20196;-65
2022/07/09 09:06:04;;;;;;;4.82;4.53;;;;;;;27.52;53.26;99078.91;5058504;28;20241;-65
2022/07/09 09:08:36;;;;;;;5.45;4.95;;;;;;;27.55;54.20;99072.59;5063525;28;20199;-66
2022/07/09 09:11:03;;;;;;;5.20;4.78;;;;;;;27.58;52.85;99075.88;5059877;28;20218;-65
2022/07/09 09:13:30;;;;;;;5.25;4.75;;;;;;;27.61;52.35;99077.50;5060417;28;20203;-66
2022/07/09 09:16:07;;;;;;;4.78;4.47;;;;;;;27.56;52.73;99074.25;5063141;28;20191;-66
2022/07/09 09:18:37;;;;;;;5.07;4.68;;;;;;;27.47;52.68;99078.28;5060562;28;20187;-66
2022/07/09 09:21:09;;;;;;;6.55;4.95;;;;;;;27.66;52.64;99078.91;5059881;28;20262;-65
2022/07/09 09:23:42;;;;;;;5.60;5.10;;;;;;;27.80;52.15;99078.91;5058542;28;20226;-65
2022/07/09 09:26:11;;;;;;;6.90;5.45;;;;;;;27.69;52.15;99077.88;5065350;28;20195;-65
2022/07/09 09:28:47;;;;;;;5.57;5.07;;;;;;;27.41;52.64;99087.41;5060389;28;20639;-65
2022/07/09 09:31:23;;;;;;;5.47;5.03;;;;;;;27.37;52.85;99079.75;5061249;28;20183;-65
2022/07/09 09:33:52;;;;;;;5.25;4.68;;;;;;;27.34;52.62;99085.19;5067503;28;20649;-66
2022/07/09 09:36:32;;;;;;;4.80;4.50;;;;;;;27.21;53.14;99085.06;5069935;28;20434;-65
2022/07/09 09:39:09;;;;;;;5.05;4.60;;;;;;;27.23;52.81;99087.63;5070173;28;20256;-68
2022/07/09 09:41:36;;;;;;;6.07;5.05;;;;;;;27.26;53.87;99093.56;5068219;28;20219;-66
2022/07/09 09:44:08;;;;;;;5.20;4.70;;;;;;;27.20;54.00;99080.72;5067457;28;20920;-66
2022/07/09 09:46:35;;;;;;;5.32;4.82;;;;;;;27.25;53.99;99086.59;5069842;28;20246;-67
2022/07/09 09:49:07;;;;;;;5.85;4.70;;;;;;;27.24;53.85;99079.63;5069834;28;20743;-65
2022/07/09 09:51:36;;;;;;;6.45;5.18;;;;;;;27.17;53.74;99082.69;5069506;28;20199;-65
2022/07/09 09:54:03;;;;;;;5.32;4.93;;;;;;;27.24;54.19;99071.72;5069120;28;20192;-66
2022/07/09 09:56:31;;;;;;;4.90;4.60;;;;;;;27.30;52.73;99076.63;5069501;28;20282;-65
2022/07/09 09:58:59;;;;;;;6.90;5.90;;;;;;;27.30;53.27;99086.34;5069729;28;20195;-65
2022/07/09 10:01:26;;;;;;;5.55;5.13;;;;;;;27.37;52.93;99080.59;5069453;28;20589;-65
2022/07/09 10:03:54;;;;;;;5.18;4.80;;;;;;;27.33;52.69;99089.63;5069222;28;20203;-66
2022/07/09 10:06:23;;;;;;;5.95;5.38;;;;;;;27.41;52.59;99083.97;5069098;28;20659;-66
2022/07/09 10:08:50;;;;;;;5.80;5.30;;;;;;;27.49;52.20;99082.56;5066512;28;20199;-67
2022/07/09 10:11:17;;;;;;;6.22;5.72;;;;;;;27.65;52.62;99087.78;5056739;28;20470;-67
2022/07/09 10:13:51;;;;;;;5.43;5.03;;;;;;;27.80;51.54;99083.38;5048445;28;20188;-67
2022/07/09 10:16:18;;;;;;;6.88;5.07;;;;;;;27.89;51.87;99081.00;5056615;28;20294;-66
2022/07/09 10:18:52;;;;;;;6.22;5.00;;;;;;;28.01;50.30;99075.00;5053063;28;20195;-65
2022/07/09 10:21:19;;;;;;;4.82;4.43;;;;;;;28.19;50.07;99074.81;5062026;28;20216;-66
2022/07/09 10:23:53;;;;;;;4.57;4.25;;;;;;;28.05;49.57;99076.50;5053543;28;20601;-67
2022/07/09 10:26:20;;;;;;;5.38;4.88;;;;;;;28.17;49.61;99077.56;5066277;28;20194;-57
2022/07/09 10:28:47;;;;;;;5.28;4.93;;;;;;;28.22;48.85;99074.63;5069680;28;20199;-58
2022/07/09 10:31:21;;;;;;;5.00;4.63;;;;;;;28.15;49.45;99075.97;5065916;28;20637;-58
2022/07/09 10:33:56;;;;;;;5.90;5.50;;;;;;;27.98;49.89;99074.31;5064878;28;20203;-58
2022/07/09 10:36:23;;;;;;;5.43;4.93;;;;;;;27.90;50.79;99066.03;5062825;28;20203;-59
2022/07/09 10:38:56;;;;;;;6.22;5.50;;;;;;;27.87;49.59;99068.84;5063501;28;20195;-67
2022/07/09 10:41:23;;;;;;;6.00;5.55;;;;;;;27.74;51.13;99065.25;5069904;28;20302;-66
2022/07/09 10:43:52;;;;;;;7.85;5.30;;;;;;;27.66;51.06;99065.69;5071894;28;20199;-66
2022/07/09 10:46:20;;;;;;;5.60;5.13;;;;;;;27.61;51.16;99066.94;5059692;28;20287;-66
2022/07/09 10:48:48;;;;;;;7.30;5.65;;;;;;;27.67;52.01;99064.75;5066189;28;20191;-66
2022/07/09 10:51:23;;;;;;;6.15;5.65;;;;;;;27.68;51.36;99062.97;5069356;28;20662;-66
2022/07/09 10:53:51;;;;;;;5.90;5.32;;;;;;;27.69;51.63;99062.06;5065058;28;20539;-58
2022/07/09 10:56:20;;;;;;;6.55;5.93;;;;;;;27.74;51.41;99067.91;5063105;28;20192;-58
2022/07/09 10:58:47;;;;;;;5.53;5.03;;;;;;;27.70;51.48;99066.38;5057551;28;20203;-65
2022/07/09 11:01:21;;;;;;;5.93;5.30;;;;;;;27.69;52.37;99064.69;5067710;28;20224;-65
2022/07/09 11:03:51;;;;;;;9.23;5.80;;;;;;;27.35;52.25;99027.06;5071968;28;20566;-66
2022/07/09 11:06:18;;;;;;;6.15;5.55;;;;;;;27.51;50.83;99061.34;5072575;28;20195;-66
2022/07/09 11:08:45;;;;;;;5.85;5.35;;;;;;;27.44;50.86;99057.38;5071994;28;20200;-66
2022/07/09 11:11:12;;;;;;;5.32;4.82;;;;;;;27.42;50.26;99064.53;5070929;28;20192;-66
2022/07/09 11:13:40;;;;;;;5.55;5.05;;;;;;;27.39;49.85;99062.88;5072379;28;20550;-65
2022/07/09 11:16:07;;;;;;;5.85;5.45;;;;;;;27.36;50.52;99059.59;5072190;28;20192;-66
2022/07/09 11:18:34;;;;;;;8.30;7.00;;;;;;;27.34;50.83;99053.53;5068794;28;20545;-66
2022/07/09 11:21:01;;;;;;;6.30;5.72;;;;;;;27.35;51.14;99053.47;5068380;28;20227;-66
2022/07/09 11:23:28;;;;;;;7.00;5.53;;;;;;;27.29;51.31;99051.19;5071889;28;20286;-65
2022/07/09 11:25:55;;;;;;;6.88;6.15;;;;;;;27.26;51.62;99051.34;5071659;28;20655;-66
2022/07/09 11:28:23;;;;;;;7.10;6.28;;;;;;;27.35;51.77;99052.63;5069764;28;20196;-65
2022/07/09 11:31:00;;;;;;;6.63;6.05;;;;;;;27.39;51.87;99051.47;5071724;28;20187;-65
2022/07/09 11:33:27;;;;;;;5.53;5.13;;;;;;;27.34;51.45;99053.53;5071867;28;20199;-65
2022/07/09 11:35:54;;;;;;;6.75;5.82;;;;;;;27.18;51.24;99044.81;5070308;28;20430;-66